Time;durP1;ratioP1;P1;durP2;ratioP2;P2;SDS_P1;SDS_P2;PMS_P1;PMS_P2;Temp;Humidity;BMP_temperature;BMP_pressure;BME280_temperature;BME280_humidity;BME280_pressure;Samples;Min_cycle;Max_cycle;Signal;HPM_P1;HPM_P2
2020/12/11 00:01:29;;;;;;;0.50;0.50;;;0.90;99.90;;;;;;5053004;28;20246;-85
2020/12/11 00:03:55;;;;;;;0.50;0.50;;;0.90;99.90;;;;;;5052677;28;20369;-85
2020/12/11 00:06:22;;;;;;;0.50;0.50;;;0.90;99.90;;;;;;5053011;28;20224;-86
2020/12/11 00:08:49;;;;;;;0.50;0.50;;;0.80;99.90;;;;;;5052552;28;20201;-85
2020/12/11 00:11:15;;;;;;;0.50;0.50;;;0.90;99.90;;;;;;5052873;28;20283;-85
2020/12/11 00:13:41;;;;;;;0.50;0.50;;;0.90;99.90;;;;;;5053581;28;20209;-85
2020/12/11 00:16:07;;;;;;;0.50;0.50;;;0.90;99.90;;;;;;5053006;28;20215;-85
2020/12/11 00:18:33;;;;;;;0.50;0.50;;;0.90;99.90;;;;;;5053304;28;20208;-85
2020/12/11 00:21:00;;;;;;;0.50;0.50;;;0.80;99.90;;;;;;5052718;28;20200;-84
2020/12/11 00:23:27;;;;;;;0.50;0.50;;;0.90;99.90;;;;;;5052288;28;20209;-85
2020/12/11 00:25:58;;;;;;;0.50;0.50;;;0.90;99.90;;;;;;5052946;28;20196;-85
2020/12/11 00:28:25;;;;;;;0.50;0.50;;;0.90;99.90;;;;;;5052934;28;20210;-85
2020/12/11 00:30:51;;;;;;;0.50;0.50;;;0.90;99.90;;;;;;5052727;28;20212;-85
2020/12/11 00:33:18;;;;;;;0.50;0.50;;;0.90;99.90;;;;;;5052896;28;20250;-85
2020/12/11 00:35:44;;;;;;;0.50;0.50;;;0.90;99.90;;;;;;5052630;28;20208;-85
2020/12/11 00:38:10;;;;;;;0.50;0.50;;;1.00;99.90;;;;;;5051341;28;20892;-85
2020/12/11 00:40:36;;;;;;;0.50;0.50;;;0.80;99.90;;;;;;5051390;28;20425;-85
2020/12/11 00:43:03;;;;;;;0.50;0.50;;;0.80;99.90;;;;;;5051003;28;20594;-85
2020/12/11 00:45:29;;;;;;;0.50;0.50;;;0.80;99.90;;;;;;5051490;28;20265;-85
2020/12/11 00:47:55;;;;;;;0.50;0.50;;;0.90;99.90;;;;;;5051185;28;20204;-85
2020/12/11 00:50:21;;;;;;;0.50;0.50;;;0.90;99.90;;;;;;5051432;28;20208;-85
2020/12/11 00:52:48;;;;;;;0.50;0.50;;;0.90;99.90;;;;;;5051122;28;20200;-85
2020/12/11 00:55:16;;;;;;;0.50;0.50;;;0.90;99.90;;;;;;5052668;28;20862;-85
2020/12/11 00:57:42;;;;;;;0.50;0.50;;;0.80;99.90;;;;;;5052203;28;20205;-86
2020/12/11 01:00:16;;;;;;;0.50;0.50;;;0.80;99.90;;;;;;5051912;28;20204;-85
2020/12/11 01:02:42;;;;;;;0.50;0.50;;;0.80;99.90;;;;;;5052171;28;20208;-85
2020/12/11 01:05:09;;;;;;;0.50;0.50;;;0.80;99.90;;;;;;5051483;28;20239;-85
2020/12/11 01:07:35;;;;;;;0.50;0.50;;;0.80;99.90;;;;;;5051674;28;20666;-85
2020/12/11 01:10:01;;;;;;;0.50;0.50;;;0.80;99.90;;;;;;5051576;28;20208;-86
2020/12/11 01:12:27;;;;;;;0.50;0.50;;;0.80;99.90;;;;;;5051146;28;20208;-85
2020/12/11 01:14:53;;;;;;;0.50;0.50;;;0.80;99.90;;;;;;5050899;28;20614;-85
2020/12/11 01:17:22;;;;;;;0.50;0.50;;;0.80;99.90;;;;;;5049974;28;20231;-86
2020/12/11 01:19:48;;;;;;;0.50;0.50;;;0.80;99.90;;;;;;5050600;28;20689;-85
2020/12/11 01:22:14;;;;;;;0.50;0.50;;;0.70;99.90;;;;;;5051129;28;20204;-86
2020/12/11 01:24:41;;;;;;;0.50;0.50;;;0.70;99.90;;;;;;5050920;28;20781;-86
2020/12/11 01:27:07;;;;;;;0.50;0.50;;;0.80;99.90;;;;;;5051863;28;20208;-85
2020/12/11 01:29:33;;;;;;;0.50;0.50;;;0.70;99.90;;;;;;5051928;28;20606;-85
2020/12/11 01:31:59;;;;;;;0.50;0.50;;;0.70;99.90;;;;;;5051704;28;20254;-85
2020/12/11 01:34:26;;;;;;;0.50;0.50;;;0.70;99.90;;;;;;5051739;28;20307;-85
2020/12/11 01:36:53;;;;;;;0.50;0.50;;;0.70;99.90;;;;;;5051560;28;20205;-85
2020/12/11 01:39:19;;;;;;;0.50;0.50;;;1.90;99.90;;;;;;5051741;28;20203;-85
2020/12/11 01:41:50;;;;;;;0.50;0.50;;;1.40;99.90;;;;;;5051684;28;20255;-85
2020/12/11 01:44:17;;;;;;;0.50;0.50;;;0.80;99.90;;;;;;5051584;28;20232;-86
2020/12/11 01:46:43;;;;;;;0.50;0.50;;;0.80;99.90;;;;;;5051531;28;20601;-85
2020/12/11 01:49:11;;;;;;;0.50;0.50;;;0.80;99.90;;;;;;5051436;28;20216;-86
2020/12/11 01:51:39;;;;;;;0.50;0.50;;;0.80;99.90;;;;;;5051676;28;20205;-85
2020/12/11 01:54:05;;;;;;;0.50;0.50;;;0.80;99.90;;;;;;5051490;28;20997;-86
2020/12/11 01:56:37;;;;;;;0.50;0.50;;;0.80;99.90;;;;;;5051571;28;20223;-85
2020/12/11 01:59:04;;;;;;;0.50;0.50;;;0.70;99.90;;;;;;5050794;28;20631;-86
2020/12/11 02:01:34;;;;;;;0.50;0.50;;;0.80;99.90;;;;;;5050961;28;20258;-86
2020/12/11 02:04:00;;;;;;;0.50;0.50;;;0.70;99.90;;;;;;5051218;28;20256;-85
2020/12/11 02:06:26;;;;;;;0.50;0.50;;;0.70;99.90;;;;;;5051668;28;20220;-86
2020/12/11 02:08:56;;;;;;;0.50;0.50;;;0.70;99.90;;;;;;5050293;28;20594;-85
2020/12/11 02:11:23;;;;;;;0.50;0.50;;;0.70;99.90;;;;;;5051712;28;20636;-85
2020/12/11 02:13:49;;;;;;;0.47;0.47;;;0.70;99.90;;;;;;5051499;28;20250;-86
2020/12/11 02:16:21;;;;;;;0.50;0.50;;;0.80;99.90;;;;;;5051223;28;20212;-86
2020/12/11 02:18:47;;;;;;;0.50;0.50;;;0.80;99.90;;;;;;5053652;28;20272;-85
2020/12/11 02:21:13;;;;;;;0.50;0.50;;;0.80;99.90;;;;;;5055654;28;20204;-86
2020/12/11 02:23:42;;;;;;;0.50;0.50;;;0.80;99.90;;;;;;5054960;28;20201;-85
2020/12/11 02:26:08;;;;;;;0.50;0.50;;;0.70;99.90;;;;;;5054097;28;20208;-86
2020/12/11 02:28:36;;;;;;;0.50;0.50;;;0.80;99.90;;;;;;5054101;28;20197;-85
2020/12/11 02:31:04;;;;;;;0.50;0.50;;;0.70;99.90;;;;;;5053819;28;20264;-85
2020/12/11 02:33:30;;;;;;;0.50;0.50;;;0.70;99.90;;;;;;5053736;28;20690;-85
2020/12/11 02:35:57;;;;;;;0.50;0.50;;;0.80;99.90;;;;;;5053824;28;20281;-85
2020/12/11 02:38:23;;;;;;;0.50;0.50;;;0.70;99.90;;;;;;5054010;28;20204;-85
2020/12/11 02:40:52;;;;;;;0.50;0.50;;;0.70;99.90;;;;;;5053563;28;20213;-85
2020/12/11 02:43:18;;;;;;;0.50;0.50;;;0.70;99.90;;;;;;5053629;28;20258;-85
2020/12/11 02:45:46;;;;;;;0.50;0.50;;;1.00;99.90;;;;;;5053600;28;20290;-85
2020/12/11 02:48:12;;;;;;;0.50;0.50;;;0.70;99.90;;;;;;5053077;28;20694;-84
2020/12/11 02:50:38;;;;;;;0.50;0.50;;;0.70;99.90;;;;;;5053269;28;20204;-85
2020/12/11 02:53:05;;;;;;;0.50;0.50;;;0.70;99.90;;;;;;5052775;28;20250;-85
2020/12/11 02:55:31;;;;;;;0.50;0.50;;;0.70;99.90;;;;;;5053421;28;20254;-85
2020/12/11 02:57:58;;;;;;;0.50;0.50;;;0.70;99.90;;;;;;5052829;28;20204;-85
2020/12/11 03:00:24;;;;;;;0.50;0.50;;;0.60;99.90;;;;;;5053314;28;20201;-85
2020/12/11 03:02:50;;;;;;;0.50;0.50;;;0.60;99.90;;;;;;5053112;28;20745;-85
2020/12/11 03:05:17;;;;;;;0.50;0.50;;;0.70;99.90;;;;;;5053193;28;20306;-85
2020/12/11 03:07:44;;;;;;;0.50;0.50;;;0.60;99.90;;;;;;5053243;28;20255;-86
2020/12/11 03:10:10;;;;;;;0.50;0.50;;;0.70;99.90;;;;;;5053149;28;20231;-85
2020/12/11 03:12:36;;;;;;;0.50;0.50;;;0.70;99.90;;;;;;5053277;28;20212;-85
2020/12/11 03:15:04;;;;;;;0.50;0.50;;;0.70;99.90;;;;;;5053117;28;20227;-86
2020/12/11 03:17:30;;;;;;;0.50;0.50;;;0.70;99.90;;;;;;5053214;28;20562;-85
2020/12/11 03:19:56;;;;;;;0.50;0.50;;;0.70;99.90;;;;;;5052864;28;20614;-85
2020/12/11 03:22:22;;;;;;;0.50;0.50;;;0.70;99.90;;;;;;5053028;28;20212;-85
2020/12/11 03:24:49;;;;;;;0.50;0.50;;;0.60;99.90;;;;;;5035340;28;516673;-85
2020/12/11 03:27:15;;;;;;;0.50;0.50;;;0.60;99.90;;;;;;5054254;28;20651;-85
2020/12/11 03:29:41;;;;;;;0.50;0.50;;;0.70;99.90;;;;;;5053624;28;20209;-85
2020/12/11 03:32:08;;;;;;;0.50;0.50;;;0.70;99.90;;;;;;5054133;28;20212;-85
2020/12/11 03:34:34;;;;;;;0.50;0.50;;;0.60;99.90;;;;;;5054444;28;20605;-85
2020/12/11 03:37:00;;;;;;;0.50;0.50;;;0.60;99.90;;;;;;5053854;28;20204;-86
2020/12/11 03:39:26;;;;;;;0.50;0.50;;;0.60;99.90;;;;;;5053913;28;20208;-85
2020/12/11 03:41:53;;;;;;;0.50;0.50;;;0.70;99.90;;;;;;5053739;28;20651;-85
2020/12/11 03:44:19;;;;;;;0.50;0.50;;;0.70;99.90;;;;;;5053581;28;20236;-85
2020/12/11 03:46:46;;;;;;;0.50;0.50;;;0.60;99.90;;;;;;5053933;28;20213;-85
2020/12/11 03:49:16;;;;;;;0.50;0.50;;;0.60;99.90;;;;;;5053820;28;20219;-85
2020/12/11 03:51:42;;;;;;;0.50;0.50;;;0.60;99.90;;;;;;5053538;28;20200;-85
2020/12/11 03:54:08;;;;;;;0.50;0.50;;;0.70;99.90;;;;;;5053148;28;20205;-86
2020/12/11 03:56:34;;;;;;;0.50;0.50;;;0.70;99.90;;;;;;5053851;28;20207;-85
2020/12/11 03:59:01;;;;;;;0.50;0.50;;;0.60;99.90;;;;;;5053524;28;20205;-86
2020/12/11 04:01:27;;;;;;;0.50;0.50;;;0.70;99.90;;;;;;5053673;28;21145;-86
2020/12/11 04:03:54;;;;;;;0.50;0.50;;;0.70;99.90;;;;;;5052757;28;20204;-85
2020/12/11 04:06:25;;;;;;;0.40;0.40;;;0.70;99.90;;;;;;5053374;28;20295;-85
2020/12/11 04:08:51;;;;;;;0.50;0.50;;;0.70;99.90;;;;;;5052996;28;20729;-86
2020/12/11 04:11:17;;;;;;;0.50;0.50;;;0.70;99.90;;;;;;5053370;28;20216;-85
2020/12/11 04:13:43;;;;;;;0.50;0.50;;;0.70;99.90;;;;;;5053340;28;20200;-85
2020/12/11 04:16:10;;;;;;;0.50;0.50;;;0.70;99.90;;;;;;5053128;28;20216;-86
2020/12/11 04:18:36;;;;;;;0.50;0.50;;;0.70;99.90;;;;;;5053246;28;20209;-85
2020/12/11 04:21:02;;;;;;;0.50;0.50;;;0.60;99.90;;;;;;5053072;28;20212;-85
2020/12/11 04:23:29;;;;;;;0.50;0.50;;;0.70;99.90;;;;;;5052948;28;20200;-85
2020/12/11 04:25:56;;;;;;;0.50;0.50;;;0.60;99.90;;;;;;5052867;28;20236;-86
2020/12/11 04:28:22;;;;;;;0.50;0.50;;;0.60;99.90;;;;;;5052721;28;20208;-85
2020/12/11 04:30:48;;;;;;;0.50;0.50;;;0.70;99.90;;;;;;5053067;28;20204;-85
2020/12/11 04:33:14;;;;;;;0.50;0.50;;;0.70;99.90;;;;;;5052933;28;20816;-85
2020/12/11 04:35:40;;;;;;;0.50;0.50;;;0.70;99.90;;;;;;5052884;28;20228;-85
2020/12/11 04:38:07;;;;;;;0.50;0.50;;;0.60;99.90;;;;;;5053008;28;20234;-85
2020/12/11 04:40:34;;;;;;;0.50;0.50;;;0.60;99.90;;;;;;5051880;28;20209;-86
2020/12/11 04:43:01;;;;;;;0.50;0.50;;;0.60;99.90;;;;;;5052536;28;20197;-85
2020/12/11 04:45:28;;;;;;;0.47;0.47;;;0.70;99.90;;;;;;5052768;28;20615;-85
2020/12/11 04:47:55;;;;;;;0.50;0.50;;;0.70;99.90;;;;;;5052459;28;20208;-85
2020/12/11 04:50:21;;;;;;;0.50;0.50;;;0.70;99.90;;;;;;5052180;28;20212;-86
2020/12/11 04:52:48;;;;;;;0.50;0.50;;;0.70;99.90;;;;;;5052567;28;20266;-85
2020/12/11 04:55:16;;;;;;;0.50;0.50;;;0.70;99.90;;;;;;5052558;28;20266;-85
2020/12/11 04:57:45;;;;;;;0.50;0.50;;;0.70;99.90;;;;;;5052489;28;20208;-86
2020/12/11 05:00:12;;;;;;;0.50;0.50;;;0.70;99.90;;;;;;5052280;28;20659;-85
2020/12/11 05:02:40;;;;;;;0.50;0.50;;;0.70;99.90;;;;;;5052449;28;20208;-85
2020/12/11 05:05:07;;;;;;;0.50;0.50;;;0.60;99.90;;;;;;5052164;28;20227;-85
2020/12/11 05:07:35;;;;;;;0.50;0.50;;;0.70;99.90;;;;;;5052248;28;20258;-85
2020/12/11 05:10:02;;;;;;;0.50;0.50;;;0.70;99.90;;;;;;5035648;28;20205;-85
2020/12/11 05:12:28;;;;;;;0.50;0.50;;;0.60;99.90;;;;;;5032349;28;20201;-85
2020/12/11 05:14:56;;;;;;;0.50;0.50;;;0.70;99.90;;;;;;5032210;28;20193;-85
2020/12/11 05:17:27;;;;;;;0.50;0.50;;;0.70;99.90;;;;;;5032094;28;20201;-85
2020/12/11 05:19:54;;;;;;;0.47;0.47;;;0.60;99.90;;;;;;5031679;28;20288;-85
2020/12/11 05:22:21;;;;;;;0.50;0.50;;;0.70;99.90;;;;;;5032013;28;20201;-85
2020/12/11 05:24:49;;;;;;;0.50;0.50;;;0.70;99.90;;;;;;5030741;28;20236;-85
2020/12/11 05:27:34;;;;;;;0.50;0.50;;;0.70;99.90;;;;;;5032240;28;20220;-85
2020/12/11 05:30:16;;;;;;;0.50;0.50;;;1.50;99.90;;;;;;5034590;28;20595;-85
2020/12/11 05:32:44;;;;;;;0.40;0.40;;;0.70;99.90;;;;;;5051741;28;20239;-84
2020/12/11 05:35:22;;;;;;;0.50;0.50;;;0.70;99.90;;;;;;5052092;28;20204;-85
2020/12/11 05:37:50;;;;;;;0.50;0.50;;;0.80;99.90;;;;;;5052021;28;20204;-85
2020/12/11 05:40:18;;;;;;;0.40;0.40;;;0.70;99.90;;;;;;5050632;28;20432;-84
2020/12/11 05:42:44;;;;;;;0.50;0.50;;;0.70;99.90;;;;;;5051839;28;20439;-85
2020/12/11 05:45:18;;;;;;;0.50;0.50;;;0.70;99.90;;;;;;5051677;28;20281;-85
2020/12/11 05:47:45;;;;;;;0.50;0.50;;;0.70;99.90;;;;;;5052149;28;20728;-84
2020/12/11 05:50:19;;;;;;;0.50;0.50;;;0.70;99.90;;;;;;5051612;28;20728;-84
2020/12/11 05:52:47;;;;;;;0.50;0.50;;;0.70;99.90;;;;;;5051191;28;20199;-84
2020/12/11 05:55:21;;;;;;;0.50;0.50;;;0.70;99.90;;;;;;5051645;28;20541;-85
2020/12/11 05:57:49;;;;;;;0.50;0.50;;;0.70;99.90;;;;;;5051645;28;20206;-85
2020/12/11 06:00:16;;;;;;;0.50;0.50;;;0.70;99.90;;;;;;5051640;28;20204;-85
2020/12/11 06:02:45;;;;;;;0.50;0.50;;;0.70;99.90;;;;;;5051832;28;20211;-84
2020/12/11 06:05:14;;;;;;;0.50;0.50;;;0.70;99.90;;;;;;5051480;28;20283;-84
2020/12/11 06:07:42;;;;;;;0.50;0.50;;;0.70;99.90;;;;;;5051383;28;20204;-84
2020/12/11 06:10:09;;;;;;;0.50;0.50;;;0.70;99.90;;;;;;5053730;28;20511;-85
2020/12/11 06:12:35;;;;;;;0.50;0.50;;;0.70;99.90;;;;;;5068341;28;20241;-84
2020/12/11 06:15:07;;;;;;;0.50;0.50;;;0.70;99.90;;;;;;5070552;28;20269;-84
2020/12/11 06:17:37;;;;;;;0.50;0.50;;;0.70;99.90;;;;;;5070119;28;20846;-84
2020/12/11 06:20:07;;;;;;;0.50;0.50;;;0.70;99.90;;;;;;5071287;28;20256;-84
2020/12/11 06:22:34;;;;;;;0.50;0.50;;;0.70;99.90;;;;;;5071403;28;20663;-85
2020/12/11 06:25:25;;;;;;;0.50;0.50;;;0.70;99.90;;;;;;5069773;28;20231;-84
2020/12/11 06:27:52;;;;;;;0.50;0.50;;;0.70;99.90;;;;;;5070141;28;20199;-84
2020/12/11 06:30:30;;;;;;;0.50;0.50;;;0.70;99.90;;;;;;5070095;28;20571;-84
2020/12/11 06:32:57;;;;;;;0.50;0.50;;;0.70;99.90;;;;;;5070357;28;20678;-84
2020/12/11 06:35:24;;;;;;;0.50;0.50;;;0.70;99.90;;;;;;5071281;28;20212;-84
2020/12/11 06:37:50;;;;;;;0.50;0.50;;;0.70;99.90;;;;;;5071579;28;20208;-84
2020/12/11 06:40:17;;;;;;;0.50;0.50;;;0.70;99.90;;;;;;5071342;28;20207;-85
2020/12/11 06:42:47;;;;;;;0.50;0.50;;;0.70;99.90;;;;;;5070566;28;20219;-85
2020/12/11 06:45:26;;;;;;;0.50;0.50;;;0.70;99.90;;;;;;5070391;28;20648;-85
2020/12/11 06:47:57;;;;;;;0.50;0.50;;;0.70;99.90;;;;;;5070848;28;20302;-86
2020/12/11 06:50:30;;;;;;;0.50;0.50;;;0.70;99.90;;;;;;5070209;28;20196;-86
2020/12/11 06:52:56;;;;;;;0.50;0.50;;;0.70;99.90;;;;;;5069652;28;20231;-86
2020/12/11 06:55:22;;;;;;;0.50;0.50;;;0.70;99.90;;;;;;5069934;28;20199;-85
2020/12/11 06:57:52;;;;;;;0.50;0.50;;;0.70;99.90;;;;;;5069976;28;20208;-85
2020/12/11 07:00:33;;;;;;;0.50;0.50;;;0.70;99.90;;;;;;5070403;28;20596;-85
2020/12/11 07:03:19;;;;;;;0.50;0.50;;;0.70;99.90;;;;;;5069821;28;20210;-85
2020/12/11 07:05:59;;;;;;;0.50;0.50;;;0.80;99.90;;;;;;5073520;28;20231;-85
2020/12/11 07:08:25;;;;;;;0.50;0.50;;;0.80;99.90;;;;;;5074060;28;20278;-86
2020/12/11 07:11:02;;;;;;;0.50;0.50;;;0.80;99.90;;;;;;5074898;28;20634;-85
2020/12/11 07:13:28;;;;;;;0.50;0.50;;;0.80;99.90;;;;;;5074950;28;20195;-86
2020/12/11 07:15:59;;;;;;;0.50;0.50;;;0.80;99.90;;;;;;5074659;28;20199;-85
2020/12/11 07:18:26;;;;;;;0.50;0.50;;;0.80;99.90;;;;;;5074548;28;20243;-85
2020/12/11 07:20:54;;;;;;;0.50;0.50;;;0.80;99.90;;;;;;5074396;28;20203;-85
2020/12/11 07:23:22;;;;;;;0.50;0.50;;;0.80;99.90;;;;;;5074264;28;20722;-85
2020/12/11 07:25:49;;;;;;;0.50;0.50;;;0.70;99.90;;;;;;5074088;28;20773;-85
2020/12/11 07:28:16;;;;;;;0.50;0.50;;;0.70;99.90;;;;;;5074172;28;20729;-85
2020/12/11 07:30:44;;;;;;;0.40;0.40;;;0.80;99.90;;;;;;5073319;28;20474;-85
2020/12/11 07:33:10;;;;;;;0.50;0.50;;;0.80;99.90;;;;;;5073787;28;20650;-85
2020/12/11 07:35:37;;;;;;;0.50;0.50;;;0.80;99.90;;;;;;5074312;28;20757;-86
2020/12/11 07:38:05;;;;;;;0.50;0.50;;;0.80;99.90;;;;;;5074312;28;20202;-86
2020/12/11 07:40:31;;;;;;;0.50;0.50;;;0.80;99.90;;;;;;5074275;28;20204;-86
2020/12/11 07:42:59;;;;;;;0.50;0.50;;;0.80;99.90;;;;;;5073729;28;20758;-85
2020/12/11 07:45:27;;;;;;;0.50;0.50;;;0.80;99.90;;;;;;5073806;28;20231;-86
2020/12/11 07:47:54;;;;;;;0.50;0.50;;;0.80;99.90;;;;;;5073877;28;20208;-86
2020/12/11 07:50:25;;;;;;;0.50;0.50;;;0.80;99.90;;;;;;5073794;28;20593;-86
2020/12/11 07:52:53;;;;;;;0.50;0.50;;;0.80;99.90;;;;;;5073385;28;20261;-85
2020/12/11 07:55:21;;;;;;;0.40;0.40;;;0.80;99.90;;;;;;5072371;28;20720;-86
2020/12/11 07:57:54;;;;;;;0.50;0.50;;;0.80;99.90;;;;;;5072388;28;20239;-86
2020/12/11 08:00:21;;;;;;;0.40;0.40;;;0.70;99.90;;;;;;5072973;28;20204;-86
2020/12/11 08:02:55;;;;;;;0.50;0.50;;;0.80;99.90;;;;;;5073573;28;20199;-86
2020/12/11 08:05:24;;;;;;;0.50;0.50;;;0.80;99.90;;;;;;5073370;28;20230;-85
2020/12/11 08:07:52;;;;;;;0.47;0.47;;;0.80;99.90;;;;;;5073503;28;20688;-85
2020/12/11 08:10:22;;;;;;;0.50;0.50;;;0.80;99.90;;;;;;5072719;28;20207;-86
2020/12/11 08:12:49;;;;;;;0.50;0.50;;;0.80;99.90;;;;;;5073172;28;20256;-86
2020/12/11 08:15:31;;;;;;;0.50;0.50;;;0.80;99.90;;;;;;5072974;28;20654;-85
2020/12/11 08:18:08;;;;;;;0.47;0.47;;;0.80;99.90;;;;;;5070128;28;20204;-84
2020/12/11 08:20:48;;;;;;;0.50;0.50;;;0.90;99.90;;;;;;5073394;28;20665;-86
2020/12/11 08:23:22;;;;;;;0.45;0.45;;;0.90;99.90;;;;;;5073110;28;20199;-85
2020/12/11 08:26:12;;;;;;;0.45;0.45;;;0.80;99.90;;;;;;5073036;28;20764;-85
2020/12/11 08:28:39;;;;;;;0.50;0.50;;;0.90;99.90;;;;;;5073193;28;20626;-85
2020/12/11 08:31:16;;;;;;;0.50;0.50;;;0.90;99.90;;;;;;5071856;28;20207;-85
2020/12/11 08:33:42;;;;;;;0.50;0.50;;;0.90;99.90;;;;;;5072627;28;20250;-86
2020/12/11 08:36:21;;;;;;;0.50;0.50;;;0.90;99.90;;;;;;5073097;28;20942;-85
2020/12/11 08:39:10;;;;;;;0.50;0.50;;;0.90;99.90;;;;;;5072850;28;20212;-86
2020/12/11 08:41:40;;;;;;;0.50;0.50;;;1.00;99.90;;;;;;5072819;28;20212;-86
2020/12/11 08:44:16;;;;;;;0.40;0.40;;;1.00;99.90;;;;;;5073029;28;20211;-86
2020/12/11 08:47:01;;;;;;;0.50;0.50;;;0.90;99.90;;;;;;5072715;28;20317;-86
2020/12/11 08:49:41;;;;;;;0.50;0.50;;;0.90;99.90;;;;;;5072817;28;20199;-85
2020/12/11 08:52:08;;;;;;;0.50;0.50;;;0.90;99.90;;;;;;5072698;28;20195;-86
2020/12/11 08:54:34;;;;;;;0.50;0.50;;;0.90;99.90;;;;;;5072213;28;20658;-86
2020/12/11 08:57:01;;;;;;;0.50;0.50;;;0.90;99.90;;;;;;5072195;28;20200;-85
2020/12/11 08:59:27;;;;;;;0.50;0.50;;;0.90;99.90;;;;;;5071255;28;20222;-86
2020/12/11 09:01:53;;;;;;;0.50;0.50;;;1.00;99.90;;;;;;5068690;28;20199;-85
2020/12/11 09:04:20;;;;;;;0.50;0.50;;;1.00;99.90;;;;;;5051079;28;20257;-86
2020/12/11 09:06:46;;;;;;;0.50;0.50;;;1.00;99.90;;;;;;5051088;28;20312;-86
2020/12/11 09:09:12;;;;;;;0.50;0.50;;;1.00;99.90;;;;;;5051501;28;20261;-86
2020/12/11 09:11:38;;;;;;;0.50;0.50;;;1.00;99.90;;;;;;5065138;28;20200;-85
2020/12/11 09:14:05;;;;;;;0.50;0.50;;;1.00;99.90;;;;;;5071873;28;20265;-86
2020/12/11 09:16:31;;;;;;;0.50;0.50;;;1.00;99.90;;;;;;5071771;28;20200;-86
2020/12/11 09:18:57;;;;;;;0.40;0.40;;;1.00;99.90;;;;;;5070687;28;20253;-86
2020/12/11 09:21:23;;;;;;;0.50;0.50;;;1.00;99.90;;;;;;5072171;28;20195;-86
2020/12/11 09:23:50;;;;;;;0.50;0.50;;;1.00;99.90;;;;;;5071405;28;20608;-85
2020/12/11 09:26:16;;;;;;;0.50;0.50;;;1.00;99.90;;;;;;5070422;28;20242;-86
2020/12/11 09:28:46;;;;;;;0.50;0.50;;;1.00;99.90;;;;;;5070222;28;20207;-86
2020/12/11 09:31:13;;;;;;;0.50;0.50;;;1.10;99.90;;;;;;5070310;28;20290;-86
2020/12/11 09:33:43;;;;;;;0.50;0.50;;;1.00;99.90;;;;;;5070595;28;20257;-86
2020/12/11 09:36:09;;;;;;;0.50;0.50;;;1.00;99.90;;;;;;5070144;28;20698;-86
2020/12/11 09:38:35;;;;;;;0.50;0.50;;;1.00;99.90;;;;;;5070622;28;20203;-86
2020/12/11 09:41:03;;;;;;;0.50;0.50;;;1.00;99.90;;;;;;5070166;28;20253;-86
2020/12/11 09:43:56;;;;;;;0.50;0.50;;;1.00;99.90;;;;;;5072079;28;20285;-86
2020/12/11 09:46:31;;;;;;;0.50;0.50;;;1.10;99.90;;;;;;5071660;28;20232;-86
2020/12/11 09:49:00;;;;;;;0.50;0.50;;;1.10;99.90;;;;;;5071804;28;20206;-86
2020/12/11 09:51:44;;;;;;;0.50;0.50;;;1.00;99.90;;;;;;5071628;28;20196;-86
2020/12/11 09:54:17;;;;;;;0.50;0.50;;;0.90;99.90;;;;;;5071612;28;20231;-85
2020/12/11 09:56:43;;;;;;;0.50;0.50;;;1.10;99.90;;;;;;5071182;28;20336;-85
2020/12/11 09:59:13;;;;;;;0.50;0.50;;;1.10;99.90;;;;;;5070481;28;20227;-85
2020/12/11 10:01:57;;;;;;;0.50;0.50;;;1.20;99.90;;;;;;5067402;28;20196;-86
2020/12/11 10:04:24;;;;;;;0.50;0.50;;;1.20;99.90;;;;;;5069408;28;20256;-85
2020/12/11 10:06:50;;;;;;;0.50;0.50;;;1.20;99.90;;;;;;5069055;28;20223;-84
2020/12/11 10:09:16;;;;;;;0.50;0.50;;;1.30;99.90;;;;;;5069381;28;20356;-85
2020/12/11 10:11:42;;;;;;;0.40;0.40;;;1.30;99.90;;;;;;5069447;28;20865;-85
2020/12/11 10:14:21;;;;;;;0.50;0.50;;;1.30;99.90;;;;;;5070430;28;20250;-84
2020/12/11 10:16:52;;;;;;;0.50;0.50;;;1.30;99.90;;;;;;5071131;28;20204;-85
2020/12/11 10:19:18;;;;;;;0.40;0.40;;;1.30;99.90;;;;;;5070797;28;20265;-84
2020/12/11 10:21:46;;;;;;;0.50;0.50;;;1.40;99.90;;;;;;5070090;28;20211;-85
2020/12/11 10:24:13;;;;;;;0.50;0.50;;;1.30;99.90;;;;;;5070003;28;20759;-85
2020/12/11 10:26:39;;;;;;;0.50;0.50;;;1.30;99.90;;;;;;5070803;28;20827;-86
2020/12/11 10:29:05;;;;;;;0.50;0.50;;;1.30;99.90;;;;;;5070255;28;20282;-85
2020/12/11 10:31:32;;;;;;;0.47;0.47;;;1.40;99.90;;;;;;5070571;28;20211;-85
2020/12/11 10:33:59;;;;;;;0.50;0.50;;;1.40;99.90;;;;;;5070658;28;20245;-85
2020/12/11 10:36:29;;;;;;;0.50;0.50;;;1.40;99.90;;;;;;5070398;28;20658;-86
2020/12/11 10:38:55;;;;;;;0.50;0.50;;;1.40;99.90;;;;;;5069472;28;20199;-86
2020/12/11 10:41:22;;;;;;;0.50;0.50;;;1.50;99.90;;;;;;5074561;28;20211;-85
2020/12/11 10:43:48;;;;;;;0.50;0.50;;;1.50;99.90;;;;;;5074439;28;20298;-85
2020/12/11 10:46:15;;;;;;;0.50;0.50;;;1.50;99.90;;;;;;5073906;28;20322;-86
2020/12/11 10:48:41;;;;;;;0.50;0.50;;;1.50;99.90;;;;;;5073905;28;20204;-85
2020/12/11 10:51:10;;;;;;;0.50;0.50;;;1.50;99.90;;;;;;5073691;28;20207;-86
2020/12/11 10:53:37;;;;;;;0.50;0.50;;;1.50;99.90;;;;;;5073901;28;20270;-86
2020/12/11 10:56:05;;;;;;;0.50;0.50;;;1.60;99.90;;;;;;5074106;28;20257;-85
2020/12/11 10:58:31;;;;;;;0.50;0.50;;;1.60;99.90;;;;;;5064438;28;20188;-86
2020/12/11 11:00:57;;;;;;;0.50;0.50;;;1.60;99.90;;;;;;5070302;28;20340;-85
2020/12/11 11:03:23;;;;;;;0.50;0.50;;;1.60;99.90;;;;;;5066166;28;20265;-85
2020/12/11 11:05:58;;;;;;;0.50;0.50;;;1.50;99.90;;;;;;5061254;28;20230;-86
2020/12/11 11:08:34;;;;;;;0.50;0.50;;;1.70;99.90;;;;;;5067005;28;20891;-85
2020/12/11 11:11:00;;;;;;;0.50;0.50;;;1.60;99.90;;;;;;5065680;28;20200;-86
2020/12/11 11:13:36;;;;;;;0.50;0.50;;;1.60;99.90;;;;;;5055419;28;20685;-85
2020/12/11 11:16:03;;;;;;;0.50;0.50;;;1.60;99.90;;;;;;5053484;28;20290;-85
2020/12/11 11:18:37;;;;;;;0.50;0.50;;;1.60;99.90;;;;;;5053798;28;20601;-86
2020/12/11 11:21:20;;;;;;;0.50;0.50;;;1.50;99.90;;;;;;5053526;28;20208;-85
2020/12/11 11:23:59;;;;;;;0.50;0.50;;;1.70;99.90;;;;;;5053162;28;20227;-84
2020/12/11 11:29:11;;;;;;;0.50;0.50;;;1.70;99.90;;;;;;5053322;28;20208;-85
2020/12/11 11:31:37;;;;;;;0.50;0.50;;;1.70;99.90;;;;;;5053319;28;20211;-86
2020/12/11 11:34:05;;;;;;;0.50;0.50;;;1.70;99.90;;;;;;5051677;28;20227;-85
2020/12/11 11:36:32;;;;;;;0.50;0.50;;;1.70;99.90;;;;;;5053318;28;20291;-84
2020/12/11 11:38:59;;;;;;;0.50;0.50;;;1.70;99.90;;;;;;5053044;28;20201;-85
2020/12/11 11:46:53;;;;;;;0.50;0.50;;;1.60;99.90;;;;;;5044282;28;20389;-85
2020/12/11 11:49:26;;;;;;;0.50;0.50;;;1.60;99.90;;;;;;5052417;28;20204;-85
2020/12/11 11:51:58;;;;;;;0.50;0.50;;;1.60;99.90;;;;;;5052540;28;20604;-85
2020/12/11 11:54:25;;;;;;;0.50;0.50;;;1.60;99.90;;;;;;5051952;28;20204;-86
2020/12/11 11:56:51;;;;;;;0.50;0.50;;;1.60;99.90;;;;;;5052388;28;20622;-86
2020/12/11 11:59:17;;;;;;;0.50;0.50;;;1.60;99.90;;;;;;5052270;28;20212;-86
2020/12/11 12:01:43;;;;;;;0.50;0.50;;;1.60;99.90;;;;;;5052605;28;20204;-85
2020/12/11 12:04:11;;;;;;;0.50;0.50;;;1.70;99.90;;;;;;5050831;28;20270;-86
2020/12/11 12:06:37;;;;;;;0.50;0.50;;;1.70;99.90;;;;;;5052698;28;20714;-86
2020/12/11 12:09:03;;;;;;;0.50;0.50;;;1.70;99.90;;;;;;5053444;28;20204;-85
2020/12/11 12:11:30;;;;;;;0.50;0.50;;;1.70;99.90;;;;;;5053054;28;20200;-85
2020/12/11 12:13:56;;;;;;;0.50;0.50;;;1.70;99.90;;;;;;5053726;28;20618;-86
2020/12/11 12:16:23;;;;;;;0.50;0.50;;;1.70;99.90;;;;;;5053591;28;20212;-85
2020/12/11 12:18:52;;;;;;;0.50;0.50;;;1.70;99.90;;;;;;5053122;28;20228;-85
2020/12/11 12:21:25;;;;;;;0.50;0.50;;;2.10;99.90;;;;;;5052986;28;20727;-86
2020/12/11 12:27:21;;;;;;;0.50;0.50;;;1.60;99.90;;;;;;5053374;28;20311;-85
2020/12/11 12:29:40;;;;;;;0.50;0.50;;;1.50;99.90;;;;;;5052549;28;20219;-85
2020/12/11 12:32:09;;;;;;;0.50;0.50;;;1.50;99.90;;;;;;5052149;28;20580;-85
2020/12/11 12:34:45;;;;;;;0.45;0.45;;;1.50;99.90;;;;;;5052558;28;20295;-85
2020/12/11 12:40:19;;;;;;;0.50;0.50;;;1.50;99.90;;;;;;5060153;28;20651;-85
2020/12/11 12:45:45;;;;;;;0.50;0.50;;;1.50;99.90;;;;;;5053689;28;20231;-85
2020/12/11 12:48:11;;;;;;;0.40;0.40;;;1.50;99.90;;;;;;5051518;28;20647;-85
2020/12/11 12:50:37;;;;;;;0.50;0.50;;;1.60;99.90;;;;;;5052763;28;20213;-85
2020/12/11 12:53:03;;;;;;;0.50;0.50;;;1.60;99.90;;;;;;5051602;28;20254;-85
2020/12/11 12:55:41;;;;;;;0.50;0.50;;;1.50;99.90;;;;;;5055164;28;20246;-85
2020/12/11 12:58:13;;;;;;;0.50;0.50;;;1.60;99.90;;;;;;5059861;28;20192;-85
2020/12/11 13:00:51;;;;;;;0.50;0.50;;;1.50;99.90;;;;;;5071840;28;20299;-85
2020/12/11 13:03:57;;;;;;;0.50;0.50;;;1.60;99.90;;;;;;5068044;28;20214;-85
2020/12/11 13:06:23;;;;;;;0.50;0.50;;;1.50;99.90;;;;;;5058989;28;20263;-85
2020/12/11 13:08:49;;;;;;;0.50;0.50;;;1.50;99.90;;;;;;5071367;28;20607;-85
2020/12/11 13:11:15;;;;;;;0.50;0.50;;;1.50;99.90;;;;;;5071384;28;20206;-85
2020/12/11 13:13:42;;;;;;;0.50;0.50;;;1.50;99.90;;;;;;5071888;28;20242;-85
2020/12/11 13:16:09;;;;;;;0.50;0.50;;;1.50;99.90;;;;;;5071878;28;20670;-85
2020/12/11 13:18:35;;;;;;;0.50;0.50;;;1.50;99.90;;;;;;5070623;28;20198;-85
2020/12/11 13:21:07;;;;;;;0.47;0.47;;;1.50;99.90;;;;;;5067039;28;20214;-85
2020/12/11 13:26:33;;;;;;;0.50;0.50;;;1.50;99.90;;;;;;5027495;28;20223;-85